createdAt,value
2023-02-09T00:02:50.879Z,-0.87
2023-02-09T00:08:22.528Z,-0.88
2023-02-09T00:13:58.467Z,-0.94
2023-02-09T00:19:32.953Z,-0.98
2023-02-09T00:25:02.063Z,-1.01
2023-02-09T00:30:33.921Z,-0.93
2023-02-09T00:36:05.580Z,-1.07
2023-02-09T00:41:37.215Z,-1.08
2023-02-09T00:47:08.897Z,-1.07
2023-02-09T00:52:41.394Z,-1.05
2023-02-09T00:58:12.446Z,-0.99
2023-02-09T01:03:44.087Z,-0.99
2023-02-09T01:09:16.196Z,-1.01
2023-02-09T01:14:52.000Z,-0.92
2023-02-09T01:20:23.675Z,-0.92
2023-02-09T01:25:55.661Z,-0.89
2023-02-09T01:31:27.245Z,-0.97
2023-02-09T01:36:59.527Z,-1.15
2023-02-09T01:42:30.753Z,-1.15
2023-02-09T01:48:02.250Z,-1.28
2023-02-09T01:53:35.232Z,-1.11
2023-02-09T01:59:05.726Z,-1.07
2023-02-09T02:04:37.435Z,-1.0
2023-02-09T02:10:09.335Z,-1.14
2023-02-09T02:15:46.047Z,-1.02
2023-02-09T02:21:17.032Z,-1.24
2023-02-09T02:26:48.751Z,-1.3
2023-02-09T02:32:20.501Z,-1.35
2023-02-09T02:37:52.803Z,-1.64
2023-02-09T02:43:23.897Z,-1.51
2023-02-09T02:48:55.730Z,-1.46
2023-02-09T02:54:27.727Z,-1.69
2023-02-09T02:59:59.434Z,-1.81
2023-02-09T03:05:30.949Z,-1.91
2023-02-09T03:11:02.670Z,-1.89
2023-02-09T03:22:12.433Z,-2.21
2023-02-09T03:27:44.520Z,-2.29
2023-02-09T03:33:16.174Z,-2.24
2023-02-09T03:38:47.938Z,-2.19
2023-02-09T03:44:19.280Z,-2.21
2023-02-09T03:49:51.173Z,-2.34
2023-02-09T03:55:23.161Z,-2.3
2023-02-09T04:00:54.834Z,-2.14
2023-02-09T04:06:26.523Z,-2.11
2023-02-09T04:11:58.186Z,-2.11
2023-02-09T04:17:34.294Z,-2.05
2023-02-09T04:23:06.194Z,-2.03
2023-02-09T04:28:37.452Z,-2.09
2023-02-09T04:34:09.206Z,-2.07
2023-02-09T04:39:41.261Z,-2.09
2023-02-09T04:45:12.983Z,-2.18
2023-02-09T04:50:45.060Z,-2.37
2023-02-09T04:56:17.636Z,-2.59
2023-02-09T05:01:47.815Z,-2.8
2023-02-09T05:07:19.575Z,-2.71
2023-02-09T05:12:52.379Z,-2.82
2023-02-09T05:18:27.826Z,-2.69
2023-02-09T05:23:59.181Z,-2.9
2023-02-09T05:29:30.976Z,-2.63
2023-02-09T05:35:02.674Z,-2.69
2023-02-09T05:40:34.691Z,-2.63
2023-02-09T05:46:08.233Z,-2.6
2023-02-09T05:51:37.786Z,-2.6
2023-02-09T05:57:09.555Z,-2.62
2023-02-09T06:02:41.388Z,-2.63
2023-02-09T06:08:12.994Z,-2.42
2023-02-09T06:13:44.681Z,-2.15
2023-02-09T06:19:20.824Z,-2.08
2023-02-09T06:24:52.765Z,-2.12
2023-02-09T06:30:24.359Z,-2.09
2023-02-09T06:35:56.825Z,-2.18
2023-02-09T06:41:27.714Z,-2.29
2023-02-09T06:46:59.767Z,-2.3
2023-02-09T06:52:31.507Z,-2.27
2023-02-09T06:58:02.865Z,-2.27
2023-02-09T07:03:34.697Z,-2.26
2023-02-09T07:09:06.546Z,-2.31
2023-02-09T07:14:38.280Z,-2.22
2023-02-09T07:20:14.561Z,-2.22
2023-02-09T07:25:46.130Z,-2.28
2023-02-09T07:31:17.984Z,-2.31
2023-02-09T07:36:49.709Z,-2.31
2023-02-09T07:42:23.330Z,-2.3
2023-02-09T07:47:52.810Z,-2.07
2023-02-09T07:53:25.152Z,-2.09
2023-02-09T07:58:56.357Z,-2.06
2023-02-09T08:04:28.353Z,-1.99
2023-02-09T08:09:59.825Z,-1.73
2023-02-09T08:15:31.529Z,-1.54
2023-02-09T08:21:08.024Z,-1.35
2023-02-09T08:26:39.384Z,-1.09
2023-02-09T08:32:11.157Z,0.17
2023-02-09T08:37:42.834Z,-0.83
2023-02-09T08:43:14.662Z,-0.86
2023-02-09T08:48:47.032Z,-0.11
2023-02-09T08:54:17.997Z,-0.56
2023-02-09T08:59:49.737Z,-0.41
2023-02-09T09:05:21.716Z,-0.34
2023-02-09T09:10:53.179Z,0.0
2023-02-09T09:16:25.214Z,0.28
2023-02-09T09:22:01.400Z,0.73
2023-02-09T09:27:32.947Z,1.59
2023-02-09T09:33:04.845Z,1.99
2023-02-09T09:38:36.440Z,1.87
2023-02-09T09:44:08.288Z,1.39
2023-02-09T09:49:39.633Z,2.1
2023-02-09T09:55:11.639Z,2.54
2023-02-09T10:00:43.346Z,2.89
2023-02-09T10:06:15.115Z,3.58
2023-02-09T10:11:46.591Z,3.59
2023-02-09T10:17:18.546Z,3.85
2023-02-09T10:22:57.302Z,3.64
2023-02-09T10:28:28.348Z,2.41
2023-02-09T10:33:59.852Z,3.42
2023-02-09T10:39:31.562Z,3.17
2023-02-09T10:45:03.566Z,3.7
2023-02-09T10:50:35.013Z,3.58
2023-02-09T10:56:06.947Z,4.28
2023-02-09T11:01:39.327Z,4.21
2023-02-09T11:07:10.152Z,4.46
2023-02-09T11:12:41.900Z,4.25
2023-02-09T11:18:14.081Z,4.77
2023-02-09T11:23:52.055Z,4.64
2023-02-09T11:29:23.525Z,4.19
2023-02-09T11:34:55.194Z,4.72
2023-02-09T11:40:26.902Z,5.2
2023-02-09T11:45:59.900Z,5.39
2023-02-09T11:51:31.815Z,5.09
2023-02-09T11:57:02.111Z,5.04
2023-02-09T12:02:33.888Z,5.36
2023-02-09T12:08:05.549Z,6.0
2023-02-09T12:13:38.046Z,5.79
2023-02-09T12:19:09.014Z,6.02
2023-02-09T12:24:45.703Z,5.98
2023-02-09T12:30:17.229Z,6.35
2023-02-09T12:35:48.939Z,5.75
2023-02-09T12:41:20.622Z,5.93
2023-02-09T12:46:52.401Z,4.78
2023-02-09T12:52:23.760Z,5.28
2023-02-09T12:57:55.795Z,5.56
2023-02-09T13:03:27.791Z,5.88
2023-02-09T13:08:59.183Z,5.47
2023-02-09T13:14:31.084Z,5.4
2023-02-09T13:20:02.459Z,5.87
2023-02-09T13:25:38.605Z,5.73
2023-02-09T13:31:10.796Z,5.67
2023-02-09T13:36:42.013Z,5.71
2023-02-09T13:42:14.059Z,5.68
2023-02-09T13:47:45.504Z,5.47
2023-02-09T13:53:17.208Z,5.8
2023-02-09T13:58:49.228Z,5.53
2023-02-09T14:04:20.808Z,5.58
2023-02-09T14:09:52.416Z,5.88
2023-02-09T14:15:24.288Z,5.54
2023-02-09T14:20:55.777Z,5.83
2023-02-09T14:26:33.084Z,5.34
2023-02-09T14:32:03.670Z,5.0
2023-02-09T14:37:35.677Z,4.98
2023-02-09T14:43:07.560Z,5.21
2023-02-09T14:48:39.168Z,5.29
2023-02-09T14:54:10.945Z,5.56
2023-02-09T14:59:42.584Z,5.09
2023-02-09T15:05:14.225Z,5.33
2023-02-09T15:10:45.894Z,5.09
2023-02-09T15:16:17.466Z,5.38
2023-02-09T15:22:01.985Z,5.25
2023-02-09T15:27:27.299Z,4.99
2023-02-09T15:32:59.046Z,4.75
2023-02-09T15:38:31.421Z,4.99
2023-02-09T15:44:02.477Z,4.67
2023-02-09T15:49:34.200Z,4.66
2023-02-09T15:55:06.047Z,4.51
2023-02-09T16:00:37.896Z,4.75
2023-02-09T16:06:09.363Z,4.71
2023-02-09T16:11:41.357Z,4.65
2023-02-09T16:17:12.792Z,4.46
2023-02-09T16:22:44.719Z,4.23
2023-02-09T16:28:21.051Z,4.16
2023-02-09T16:33:52.409Z,3.89
2023-02-09T16:39:24.286Z,3.72
2023-02-09T16:44:55.812Z,3.65
2023-02-09T16:50:27.711Z,3.52
2023-02-09T16:55:59.395Z,3.37
2023-02-09T17:01:31.080Z,3.24
2023-02-09T17:07:03.252Z,3.11
2023-02-09T17:12:34.715Z,3.07
2023-02-09T17:18:06.463Z,3.0
2023-02-09T17:23:38.254Z,2.88
2023-02-09T17:29:14.066Z,2.81
2023-02-09T17:34:45.807Z,2.67
2023-02-09T17:40:17.751Z,2.63
2023-02-09T17:45:49.747Z,2.61
2023-02-09T17:51:21.015Z,2.52
2023-02-09T17:56:52.766Z,2.44
2023-02-09T18:02:24.520Z,2.38
2023-02-09T18:07:56.446Z,2.3
2023-02-09T18:13:27.890Z,2.21
2023-02-09T18:18:59.774Z,2.15
2023-02-09T18:24:31.585Z,2.19
2023-02-09T18:30:07.867Z,2.1
2023-02-09T18:35:39.455Z,2.04
2023-02-09T18:41:10.963Z,2.0
2023-02-09T18:46:43.024Z,1.97
2023-02-09T18:52:14.655Z,1.93
2023-02-09T18:57:46.827Z,1.88
2023-02-09T19:03:18.106Z,1.82
2023-02-09T19:08:49.565Z,1.8
2023-02-09T19:14:21.297Z,1.8
2023-02-09T19:19:53.262Z,1.77
2023-02-09T19:25:25.051Z,1.7
2023-02-09T19:31:03.386Z,1.66
2023-02-09T19:36:34.784Z,1.58
2023-02-09T19:42:06.684Z,1.53
2023-02-09T19:47:38.241Z,1.5
2023-02-09T19:53:09.817Z,1.46
2023-02-09T19:58:41.803Z,1.46
2023-02-09T20:04:13.208Z,1.32
2023-02-09T20:09:45.131Z,1.33
2023-02-09T20:15:16.874Z,1.21
2023-02-09T20:20:48.661Z,0.81
2023-02-09T20:26:20.102Z,1.0
2023-02-09T20:31:58.518Z,1.04
2023-02-09T20:37:30.005Z,0.58
2023-02-09T20:43:01.906Z,0.76
2023-02-09T20:48:33.410Z,0.77
2023-02-09T20:54:05.821Z,0.79
2023-02-09T20:59:36.862Z,0.75
2023-02-09T21:05:08.617Z,0.66
2023-02-09T21:10:40.978Z,0.56
2023-02-09T21:16:12.060Z,0.55
2023-02-09T21:21:44.121Z,0.62
2023-02-09T21:27:15.798Z,0.59
2023-02-09T21:32:53.645Z,0.57
2023-02-09T21:38:25.554Z,0.51
2023-02-09T21:43:57.573Z,0.51
2023-02-09T21:49:29.318Z,0.52
2023-02-09T21:55:00.788Z,0.47
2023-02-09T22:00:32.550Z,0.43
2023-02-09T22:06:03.982Z,0.37
2023-02-09T22:11:35.765Z,0.51
2023-02-09T22:17:07.483Z,0.51
2023-02-09T22:22:39.233Z,0.43
2023-02-09T22:28:10.929Z,0.43
2023-02-09T22:33:47.013Z,0.29
2023-02-09T22:39:18.720Z,0.31
2023-02-09T22:44:51.362Z,0.42
2023-02-09T22:50:22.224Z,0.38
2023-02-09T22:55:53.942Z,0.34
2023-02-09T23:01:25.927Z,0.43
2023-02-09T23:06:57.448Z,0.34
2023-02-09T23:12:29.377Z,0.35
2023-02-09T23:18:02.267Z,0.38
2023-02-09T23:23:32.571Z,0.41
2023-02-09T23:29:05.065Z,0.43
2023-02-09T23:34:42.499Z,0.41
2023-02-09T23:40:15.061Z,0.44
2023-02-09T23:45:45.877Z,0.45
2023-02-09T23:51:17.555Z,0.46
2023-02-09T23:56:49.337Z,0.49
